createdAt,value
2018-10-21T00:00:55.097Z,14.90
2018-10-21T00:03:25.105Z,13.95
2018-10-21T00:05:55.022Z,12.98
2018-10-21T00:08:24.909Z,21.50
2018-10-21T00:10:54.953Z,20.25
2018-10-21T00:13:24.908Z,28.75
2018-10-21T00:15:54.777Z,18.30
2018-10-21T00:18:24.732Z,15.28
2018-10-21T00:20:54.647Z,15.18
2018-10-21T00:23:24.546Z,19.20
2018-10-21T00:25:54.466Z,15.25
2018-10-21T00:28:24.360Z,21.70
2018-10-21T00:30:54.375Z,18.80
2018-10-21T00:33:24.256Z,12.00
2018-10-21T00:35:54.149Z,19.42
2018-10-21T00:38:24.038Z,22.60
2018-10-21T00:40:53.967Z,17.00
2018-10-21T00:43:23.851Z,27.25
2018-10-21T00:45:53.735Z,25.37
2018-10-21T00:48:24.291Z,24.98
2018-10-21T00:50:54.318Z,22.05
2018-10-21T00:53:24.169Z,24.25
2018-10-21T00:55:54.721Z,23.30
2018-10-21T00:58:24.605Z,18.45
2018-10-21T01:00:54.544Z,25.05
2018-10-21T01:03:24.510Z,22.48
2018-10-21T01:05:54.413Z,18.07
2018-10-21T01:08:24.400Z,23.75
2018-10-21T01:10:54.354Z,21.23
2018-10-21T01:13:24.281Z,15.68
2018-10-21T01:15:54.166Z,16.37
2018-10-21T01:18:24.116Z,18.23
2018-10-21T01:20:54.069Z,26.55
2018-10-21T01:23:24.021Z,16.85
2018-10-21T01:25:53.917Z,15.83
2018-10-21T01:28:23.850Z,20.00
2018-10-21T01:30:53.709Z,17.80
2018-10-21T01:33:23.602Z,14.10
2018-10-21T01:35:53.544Z,16.48
2018-10-21T01:38:23.806Z,22.93
2018-10-21T01:40:55.001Z,14.23
2018-10-21T01:43:26.080Z,15.75
2018-10-21T01:45:56.386Z,18.67
2018-10-21T01:48:27.476Z,15.95
2018-10-21T01:50:57.539Z,22.93
2018-10-21T01:53:27.486Z,17.62
2018-10-21T01:55:57.457Z,13.35
2018-10-21T01:58:27.448Z,18.40
2018-10-21T02:00:57.616Z,15.88
2018-10-21T02:03:27.511Z,13.95
2018-10-21T02:05:57.461Z,20.95
2018-10-21T02:08:28.384Z,14.83
2018-10-21T02:10:58.357Z,14.55
2018-10-21T02:13:28.266Z,15.53
2018-10-21T02:15:58.196Z,13.32
2018-10-21T02:18:28.138Z,18.00
2018-10-21T02:20:58.393Z,20.30
2018-10-21T02:23:28.628Z,15.85
2018-10-21T02:25:58.537Z,11.43
2018-10-21T02:28:28.426Z,12.23
2018-10-21T02:30:58.314Z,10.85
2018-10-21T02:33:28.362Z,16.55
2018-10-21T02:35:58.155Z,18.27
2018-10-21T02:38:28.113Z,21.50
2018-10-21T02:41:41.474Z,18.95
2018-10-21T02:44:18.821Z,25.85
2018-10-21T02:46:49.485Z,23.12
2018-10-21T02:49:20.025Z,23.52
2018-10-21T02:51:55.297Z,25.10
2018-10-21T02:54:26.454Z,15.13
2018-10-21T02:56:56.396Z,15.08
2018-10-21T02:59:26.569Z,22.20
2018-10-21T03:01:56.543Z,19.52
2018-10-21T03:04:26.469Z,28.50
2018-10-21T03:06:56.465Z,20.00
2018-10-21T03:09:27.385Z,25.12
2018-10-21T03:11:57.278Z,25.08
2018-10-21T03:14:27.246Z,19.55
2018-10-21T03:16:57.148Z,21.85
2018-10-21T03:19:27.077Z,16.95
2018-10-21T03:21:57.153Z,15.83
2018-10-21T03:24:27.113Z,13.98
2018-10-21T03:26:57.037Z,11.75
2018-10-21T03:29:27.001Z,14.43
2018-10-21T03:31:56.902Z,15.68
2018-10-21T03:34:26.821Z,11.95
2018-10-21T03:36:56.720Z,21.27
2018-10-21T03:39:26.612Z,17.40
2018-10-21T03:41:56.594Z,22.80
2018-10-21T03:47:24.761Z,23.05
2018-10-21T03:49:54.685Z,19.35
2018-10-21T03:52:24.602Z,16.12
2018-10-21T03:54:54.487Z,27.45
2018-10-21T03:57:24.441Z,23.12
2018-10-21T03:59:54.361Z,16.30
2018-10-21T04:02:24.309Z,15.10
2018-10-21T04:04:54.201Z,15.83
2018-10-21T04:07:24.104Z,21.00
2018-10-21T04:09:54.168Z,16.30
2018-10-21T04:12:24.066Z,16.45
2018-10-21T04:14:54.005Z,12.28
2018-10-21T04:17:24.312Z,14.60
2018-10-21T04:19:54.202Z,16.40
2018-10-21T04:22:24.425Z,13.15
2018-10-21T04:24:54.330Z,13.50
2018-10-21T04:27:24.867Z,22.40
2018-10-21T04:29:54.800Z,19.75
2018-10-21T04:32:24.745Z,20.27
2018-10-21T04:34:54.645Z,16.67
2018-10-21T04:38:45.580Z,10.50
2018-10-21T04:41:15.501Z,15.72
2018-10-21T04:43:45.768Z,14.28
2018-10-21T04:46:15.703Z,12.90
2018-10-21T04:48:45.582Z,11.93
2018-10-21T04:51:15.509Z,17.87
2018-10-21T04:53:45.441Z,14.33
2018-10-21T04:56:15.422Z,16.60
2018-10-21T04:58:45.320Z,12.95
2018-10-21T05:01:15.226Z,12.50
2018-10-21T05:03:45.142Z,12.25
2018-10-21T05:06:15.078Z,17.17
2018-10-21T05:08:44.974Z,14.85
2018-10-21T05:11:14.853Z,13.72
2018-10-21T05:13:44.804Z,16.27
2018-10-21T05:16:14.747Z,14.20
2018-10-21T05:18:44.861Z,16.00
2018-10-21T05:21:14.928Z,17.42
2018-10-21T05:23:44.856Z,17.80
2018-10-21T05:26:14.757Z,18.92
2018-10-21T05:28:44.695Z,13.93
2018-10-21T05:31:14.625Z,12.60
2018-10-21T05:33:44.565Z,12.93
2018-10-21T05:36:14.454Z,20.27
2018-10-21T05:38:44.339Z,19.32
2018-10-21T05:41:14.270Z,18.25
2018-10-21T05:43:44.334Z,17.67
2018-10-21T05:46:31.429Z,20.62
2018-10-21T05:49:01.289Z,18.37
2018-10-21T05:51:31.205Z,14.60
2018-10-21T05:54:01.092Z,18.75
2018-10-21T05:56:30.984Z,13.43
2018-10-21T05:59:01.177Z,18.12
2018-10-21T06:01:31.136Z,11.97
2018-10-21T06:04:01.023Z,13.68
2018-10-21T06:06:30.949Z,16.97
2018-10-21T06:09:00.826Z,19.90
2018-10-21T06:11:30.725Z,16.07
2018-10-21T06:14:01.246Z,19.48
2018-10-21T06:16:35.553Z,21.55
2018-10-21T06:19:07.125Z,22.13
2018-10-21T06:21:37.081Z,22.70
2018-10-21T06:24:07.061Z,27.50
2018-10-21T06:26:37.322Z,21.82
2018-10-21T06:29:07.449Z,20.62
2018-10-21T06:31:37.525Z,24.10
2018-10-21T06:34:07.445Z,16.67
2018-10-21T06:36:37.427Z,21.90
2018-10-21T06:39:07.613Z,14.20
2018-10-21T06:41:37.565Z,14.00
2018-10-21T06:44:07.517Z,12.75
2018-10-21T06:46:37.425Z,22.22
2018-10-21T06:49:07.311Z,16.32
2018-10-21T06:51:37.438Z,20.92
2018-10-21T06:54:07.345Z,21.02
2018-10-21T06:56:37.661Z,22.98
2018-10-21T06:59:07.513Z,32.15
2018-10-21T07:01:37.412Z,16.20
2018-10-21T07:04:07.805Z,21.85
2018-10-21T07:06:37.724Z,24.15
2018-10-21T07:09:07.702Z,27.32
2018-10-21T07:11:37.595Z,23.98
2018-10-21T07:14:07.481Z,23.10
2018-10-21T07:16:37.505Z,28.23
2018-10-21T07:19:07.573Z,29.10
2018-10-21T07:21:37.594Z,30.72
2018-10-21T07:24:07.481Z,35.58
2018-10-21T07:26:37.401Z,31.60
2018-10-21T07:29:07.305Z,28.35
2018-10-21T07:31:37.192Z,28.23
2018-10-21T07:34:07.143Z,31.62
2018-10-21T07:36:37.285Z,27.62
2018-10-21T07:39:09.693Z,29.07
2018-10-21T07:41:39.733Z,27.85
2018-10-21T07:44:09.644Z,28.98
2018-10-21T07:46:39.757Z,31.57
2018-10-21T07:49:09.718Z,29.32
2018-10-21T07:51:39.697Z,42.05
2018-10-21T07:54:09.614Z,28.07
2018-10-21T07:56:39.529Z,31.95
2018-10-21T07:59:09.458Z,35.63
2018-10-21T08:01:39.345Z,33.53
2018-10-21T08:04:09.303Z,31.55
2018-10-21T08:07:57.446Z,28.67
2018-10-21T08:10:27.778Z,23.95
2018-10-21T08:12:57.700Z,34.80
2018-10-21T08:15:28.085Z,29.80
2018-10-21T08:17:57.982Z,27.67
2018-10-21T08:20:27.972Z,23.80
2018-10-21T08:22:57.936Z,29.52
2018-10-21T08:25:28.181Z,24.15
2018-10-21T08:27:58.121Z,26.90
2018-10-21T08:30:28.005Z,29.30
2018-10-21T08:32:57.978Z,29.85
2018-10-21T08:35:27.898Z,26.95
2018-10-21T08:37:57.778Z,25.60
2018-10-21T08:40:27.932Z,33.48
2018-10-21T08:42:57.817Z,22.83
2018-10-21T08:45:28.041Z,27.67
2018-10-21T08:47:57.993Z,27.70
2018-10-21T08:50:27.916Z,22.93
2018-10-21T08:52:57.849Z,20.43
2018-10-21T08:55:27.796Z,28.40
2018-10-21T08:57:57.798Z,28.43
2018-10-21T09:00:27.696Z,25.17
2018-10-21T09:02:57.601Z,30.30
2018-10-21T09:05:27.565Z,19.27
2018-10-21T09:07:57.478Z,15.13
2018-10-21T09:10:28.425Z,18.40
2018-10-21T09:12:58.273Z,19.27
2018-10-21T09:15:28.209Z,22.70
2018-10-21T09:17:58.150Z,16.20
2018-10-21T09:20:28.050Z,13.43
2018-10-21T09:22:58.025Z,15.13
2018-10-21T09:25:28.039Z,18.40
2018-10-21T09:27:58.059Z,13.33
2018-10-21T09:30:28.033Z,13.63
2018-10-21T09:32:57.925Z,13.30
2018-10-21T09:35:27.833Z,14.57
2018-10-21T09:37:57.776Z,9.87
2018-10-21T09:40:30.673Z,13.27
2018-10-21T09:43:00.610Z,16.43
2018-10-21T09:45:30.509Z,18.23
2018-10-21T09:48:00.465Z,17.13
2018-10-21T09:50:30.398Z,15.37
2018-10-21T09:53:00.281Z,16.23
2018-10-21T09:55:30.209Z,14.60
2018-10-21T09:58:00.157Z,15.80
2018-10-21T10:00:35.477Z,18.07
2018-10-21T10:03:06.687Z,13.77
2018-10-21T10:05:36.626Z,14.80
2018-10-21T10:08:06.638Z,16.70
2018-10-21T10:10:36.522Z,17.40
2018-10-21T10:13:06.692Z,11.27
2018-10-21T10:15:36.660Z,14.07
2018-10-21T10:18:06.577Z,10.17
2018-10-21T10:20:36.463Z,7.40
2018-10-21T10:23:06.646Z,16.43
2018-10-21T10:25:36.537Z,6.63
2018-10-21T10:28:07.350Z,7.40
2018-10-21T10:30:37.376Z,22.77
2018-10-21T10:33:07.266Z,12.67
2018-10-21T10:35:37.187Z,9.90
2018-10-21T10:38:07.108Z,7.63
2018-10-21T10:40:37.025Z,12.30
2018-10-21T10:43:07.431Z,12.20
2018-10-21T10:45:37.393Z,10.50
2018-10-21T10:48:07.761Z,9.97
2018-10-21T10:50:37.677Z,5.93
2018-10-21T10:53:07.748Z,7.70
2018-10-21T10:55:42.997Z,8.13
2018-10-21T10:58:12.954Z,8.53
2018-10-21T11:00:42.769Z,12.23
2018-10-21T11:03:13.162Z,7.50
2018-10-21T11:05:43.231Z,10.53
2018-10-21T11:08:13.192Z,5.77
2018-10-21T11:10:43.084Z,10.83
2018-10-21T11:13:13.036Z,7.87
2018-10-21T11:15:42.920Z,6.63
2018-10-21T11:18:12.813Z,5.13
2018-10-21T11:20:42.731Z,7.33
2018-10-21T11:23:12.601Z,5.00
2018-10-21T11:25:42.489Z,8.53
2018-10-21T11:28:12.552Z,10.57
2018-10-21T11:30:42.324Z,6.90
2018-10-21T11:33:12.269Z,4.27
2018-10-21T11:35:42.184Z,5.00
2018-10-21T11:38:12.144Z,7.10
2018-10-21T11:40:42.089Z,6.23
2018-10-21T11:43:12.582Z,6.10
2018-10-21T11:45:42.572Z,5.63
2018-10-21T11:48:12.631Z,12.03
2018-10-21T11:50:42.741Z,2.70
2018-10-21T11:53:12.640Z,10.13
2018-10-21T11:55:43.203Z,6.23
2018-10-21T11:58:14.507Z,2.70
2018-10-21T12:00:45.752Z,4.67
2018-10-21T12:03:15.657Z,3.30
2018-10-21T12:05:45.693Z,1.60
2018-10-21T12:08:15.653Z,8.37
2018-10-21T12:10:45.646Z,13.90
2018-10-21T12:13:15.625Z,4.33
2018-10-21T12:15:45.487Z,5.50
2018-10-21T12:18:15.385Z,2.90
2018-10-21T12:20:45.333Z,4.83
2018-10-21T12:23:15.289Z,7.47
2018-10-21T12:25:45.262Z,5.27
2018-10-21T12:28:15.167Z,5.60
2018-10-21T12:30:44.996Z,11.30
2018-10-21T12:33:14.956Z,9.00
2018-10-21T12:35:45.034Z,4.20
2018-10-21T12:38:14.969Z,10.10
2018-10-21T12:40:44.912Z,6.93
2018-10-21T12:43:14.843Z,6.73
2018-10-21T12:45:44.734Z,8.73
2018-10-21T12:48:14.642Z,6.17
2018-10-21T12:50:44.545Z,5.67
2018-10-21T12:53:14.647Z,4.43
2018-10-21T12:55:47.405Z,6.10
2018-10-21T12:58:17.701Z,6.70
2018-10-21T13:00:47.688Z,5.87
2018-10-21T13:03:17.909Z,2.80
2018-10-21T13:05:47.800Z,4.30
2018-10-21T13:08:18.045Z,3.63
2018-10-21T13:10:48.110Z,7.83
2018-10-21T13:13:18.032Z,3.27
2018-10-21T13:15:48.001Z,5.63
2018-10-21T13:18:17.929Z,4.43
2018-10-21T13:20:47.893Z,5.60
2018-10-21T13:23:17.949Z,6.97
2018-10-21T13:25:48.334Z,5.73
2018-10-21T13:28:18.274Z,6.90
2018-10-21T13:30:48.160Z,7.43
2018-10-21T13:33:18.316Z,6.83
2018-10-21T13:35:48.253Z,6.07
2018-10-21T13:38:18.180Z,5.63
2018-10-21T13:40:48.161Z,3.33
2018-10-21T13:43:18.111Z,3.73
2018-10-21T13:45:48.001Z,6.20
2018-10-21T13:48:17.862Z,6.37
2018-10-21T13:50:47.779Z,4.73
2018-10-21T13:53:17.770Z,2.90
2018-10-21T13:55:47.648Z,4.37
2018-10-21T13:58:17.672Z,6.67
2018-10-21T14:00:47.495Z,4.43
2018-10-21T14:03:17.381Z,4.93
2018-10-21T14:05:47.413Z,5.30
2018-10-21T14:08:17.329Z,1.60
2018-10-21T14:10:47.220Z,4.70
2018-10-21T14:13:17.196Z,4.83
2018-10-21T14:15:47.068Z,7.63
2018-10-21T14:18:16.976Z,7.80
2018-10-21T14:20:47.098Z,9.63
2018-10-21T14:23:17.049Z,9.07
2018-10-21T14:25:47.016Z,6.27
2018-10-21T14:28:16.898Z,7.37
2018-10-21T14:30:46.948Z,5.50
2018-10-21T14:33:16.926Z,2.90
2018-10-21T14:35:47.001Z,5.10
2018-10-21T14:38:16.925Z,2.83
2018-10-21T14:40:46.895Z,3.33
2018-10-21T14:43:16.908Z,2.93
2018-10-21T14:45:47.043Z,10.03
2018-10-21T14:48:17.102Z,2.63
2018-10-21T14:50:46.936Z,9.70
2018-10-21T14:53:16.890Z,7.47
2018-10-21T14:55:46.756Z,6.67
2018-10-21T14:58:16.646Z,5.07
2018-10-21T15:00:46.730Z,4.93
2018-10-21T15:03:16.650Z,19.83
2018-10-21T15:05:46.477Z,7.03
2018-10-21T15:08:16.457Z,5.93
2018-10-21T15:10:46.345Z,5.23
2018-10-21T15:13:16.261Z,6.10
2018-10-21T15:15:46.698Z,3.70
2018-10-21T15:18:16.762Z,4.33
2018-10-21T15:20:46.614Z,5.67
2018-10-21T15:23:16.600Z,6.53
2018-10-21T15:25:46.466Z,7.33
2018-10-21T15:28:16.462Z,6.40
2018-10-21T15:30:46.413Z,6.03
2018-10-21T15:33:16.320Z,4.80
2018-10-21T15:35:46.234Z,3.63
2018-10-21T15:38:16.204Z,4.30
2018-10-21T15:40:46.194Z,4.63
2018-10-21T15:43:16.165Z,6.73
2018-10-21T15:45:46.298Z,7.40
2018-10-21T15:48:16.185Z,5.20
2018-10-21T15:50:46.145Z,14.63
2018-10-21T15:53:16.321Z,14.10
2018-10-21T15:55:46.292Z,8.47
2018-10-21T15:58:16.296Z,12.00
2018-10-21T16:00:46.450Z,6.97
2018-10-21T16:03:16.433Z,10.93
2018-10-21T16:05:46.406Z,4.70
2018-10-21T16:08:16.366Z,4.03
2018-10-21T16:10:46.218Z,9.47
2018-10-21T16:13:16.226Z,5.63
2018-10-21T16:15:46.319Z,6.83
2018-10-21T16:18:16.631Z,19.17
2018-10-21T16:20:46.587Z,8.30
2018-10-21T16:23:16.533Z,8.57
2018-10-21T16:25:46.699Z,12.07
2018-10-21T16:28:16.793Z,7.50
2018-10-21T16:30:46.891Z,12.83
2018-10-21T16:33:16.825Z,5.73
2018-10-21T16:35:46.943Z,2.87
2018-10-21T16:38:16.909Z,8.00
2018-10-21T16:40:46.841Z,8.07
2018-10-21T16:43:16.777Z,13.33
2018-10-21T16:45:46.674Z,7.80
2018-10-21T16:48:16.959Z,4.97
2018-10-21T16:50:46.951Z,12.50
2018-10-21T16:53:16.837Z,12.57
2018-10-21T16:55:46.929Z,5.50
2018-10-21T16:58:16.850Z,9.17
2018-10-21T17:00:46.861Z,11.73
2018-10-21T17:03:16.962Z,8.63
2018-10-21T17:05:46.976Z,6.33
2018-10-21T17:08:16.755Z,8.47
2018-10-21T17:10:46.998Z,12.03
2018-10-21T17:13:16.749Z,12.83
2018-10-21T17:15:46.885Z,13.70
2018-10-21T17:18:16.734Z,11.40
2018-10-21T17:20:46.763Z,11.80
2018-10-21T17:23:16.669Z,8.30
2018-10-21T17:25:46.602Z,11.37
2018-10-21T17:28:16.560Z,10.47
2018-10-21T17:30:46.365Z,8.37
2018-10-21T17:33:16.268Z,18.57
2018-10-21T17:35:46.157Z,12.47
2018-10-21T17:38:16.141Z,41.13
2018-10-21T17:40:46.092Z,18.85
2018-10-21T17:43:16.096Z,12.90
2018-10-21T17:45:45.917Z,16.30
2018-10-21T17:48:16.108Z,15.10
2018-10-21T17:50:46.067Z,18.13
2018-10-21T17:53:15.957Z,14.10
2018-10-21T17:55:45.889Z,15.88
2018-10-21T17:58:15.973Z,19.98
2018-10-21T18:00:46.081Z,11.63
2018-10-21T18:03:16.068Z,9.73
2018-10-21T18:05:45.962Z,15.30
2018-10-21T18:08:15.858Z,10.90
2018-10-21T18:10:45.825Z,14.00
2018-10-21T18:13:15.907Z,12.68
2018-10-21T18:15:45.699Z,9.30
2018-10-21T18:18:15.635Z,16.85
2018-10-21T18:20:45.748Z,9.98
2018-10-21T18:23:15.520Z,34.88
2018-10-21T18:25:45.696Z,85.07
2018-10-21T18:28:16.138Z,22.20
2018-10-21T18:30:46.229Z,11.78
2018-10-21T18:33:16.247Z,10.30
2018-10-21T18:35:46.198Z,8.55
2018-10-21T18:38:16.090Z,10.90
2018-10-21T18:40:46.180Z,12.43
2018-10-21T18:43:16.006Z,14.40
2018-10-21T18:45:45.830Z,9.50
2018-10-21T18:48:15.771Z,11.18
2018-10-21T18:50:45.780Z,15.20
2018-10-21T18:53:15.732Z,10.78
2018-10-21T18:55:45.636Z,12.70
2018-10-21T18:58:15.708Z,9.23
2018-10-21T19:00:45.488Z,13.45
2018-10-21T19:03:15.433Z,16.87
2018-10-21T19:05:45.346Z,14.50
2018-10-21T19:08:15.247Z,16.75
2018-10-21T19:10:45.197Z,18.12
2018-10-21T19:13:15.182Z,14.85
2018-10-21T19:15:45.073Z,15.88
2018-10-21T19:18:14.972Z,18.10
2018-10-21T19:20:45.229Z,17.25
2018-10-21T19:23:15.123Z,26.55
2018-10-21T19:25:45.010Z,14.40
2018-10-21T19:28:15.002Z,25.15
2018-10-21T19:30:44.862Z,14.63
2018-10-21T19:33:14.752Z,12.55
2018-10-21T19:35:44.632Z,12.07
2018-10-21T19:38:14.548Z,14.93
2018-10-21T19:40:44.465Z,10.88
2018-10-21T19:43:14.416Z,12.80
2018-10-21T19:45:44.566Z,12.40
2018-10-21T19:48:14.463Z,9.78
2018-10-21T19:50:44.333Z,8.93
2018-10-21T19:53:14.329Z,15.53
2018-10-21T19:55:44.205Z,8.18
2018-10-21T19:58:14.125Z,16.73
2018-10-21T20:00:43.972Z,14.43
2018-10-21T20:03:13.933Z,19.05
2018-10-21T20:05:43.866Z,11.97
2018-10-21T20:08:13.766Z,20.65
2018-10-21T20:10:43.799Z,11.33
2018-10-21T20:13:13.754Z,11.88
2018-10-21T20:15:50.420Z,16.02
2018-10-21T20:18:20.355Z,14.65
2018-10-21T20:20:50.368Z,18.17
2018-10-21T20:23:20.381Z,16.97
2018-10-21T20:25:50.378Z,22.45
2018-10-21T20:28:20.276Z,19.52
2018-10-21T20:30:50.573Z,19.90
2018-10-21T20:33:20.455Z,14.80
2018-10-21T20:35:50.279Z,11.90
2018-10-21T20:38:20.395Z,10.93
2018-10-21T20:40:50.216Z,18.07
2018-10-21T20:43:20.133Z,20.92
2018-10-21T20:45:50.057Z,15.40
2018-10-21T20:48:20.012Z,27.00
2018-10-21T20:50:49.900Z,26.52
2018-10-21T20:53:19.795Z,33.23
2018-10-21T20:55:49.703Z,22.32
2018-10-21T20:58:19.770Z,29.02
2018-10-21T21:00:49.741Z,22.07
2018-10-21T21:03:19.628Z,28.10
2018-10-21T21:05:49.504Z,31.33
2018-10-21T21:08:19.686Z,32.85
2018-10-21T21:10:49.596Z,29.75
2018-10-21T21:13:19.550Z,23.30
2018-10-21T21:16:53.036Z,23.57
2018-10-21T21:19:23.118Z,22.58
2018-10-21T21:21:53.149Z,18.42
2018-10-21T21:24:23.725Z,20.60
2018-10-21T21:26:53.626Z,15.32
2018-10-21T21:29:23.505Z,17.50
2018-10-21T21:31:53.773Z,22.05
2018-10-21T21:34:23.688Z,19.70
2018-10-21T21:36:53.624Z,20.88
2018-10-21T21:39:23.540Z,24.80
2018-10-21T21:41:53.456Z,20.12
2018-10-21T21:44:24.328Z,27.85
2018-10-21T21:46:54.239Z,24.12
2018-10-21T21:49:24.316Z,20.20
2018-10-21T21:51:54.369Z,21.12
2018-10-21T21:54:24.217Z,16.17
2018-10-21T21:56:54.109Z,20.90
2018-10-21T21:59:24.045Z,19.37
2018-10-21T22:01:54.229Z,17.95
2018-10-21T22:04:24.318Z,14.03
2018-10-21T22:06:54.197Z,19.77
2018-10-21T22:09:24.401Z,13.15
2018-10-21T22:11:54.323Z,12.63
2018-10-21T22:14:24.201Z,16.77
2018-10-21T22:16:54.077Z,19.42
2018-10-21T22:19:24.318Z,18.40
2018-10-21T22:21:54.300Z,15.32
2018-10-21T22:24:24.181Z,15.88
2018-10-21T22:26:54.093Z,20.25
2018-10-21T22:29:24.057Z,17.40
2018-10-21T22:31:54.006Z,21.57
2018-10-21T22:34:23.889Z,18.75
2018-10-21T22:36:54.085Z,18.75
2018-10-21T22:39:24.648Z,23.18
2018-10-21T22:41:54.775Z,16.82
2018-10-21T22:44:24.668Z,15.70
2018-10-21T22:46:54.689Z,22.35
2018-10-21T22:49:24.625Z,24.12
2018-10-21T22:51:54.559Z,28.23
2018-10-21T22:54:24.445Z,18.87
2018-10-21T22:56:54.321Z,18.25
2018-10-21T22:59:24.266Z,17.40
2018-10-21T23:01:54.229Z,20.43
2018-10-21T23:04:24.177Z,26.75
2018-10-21T23:06:54.088Z,23.05
2018-10-21T23:09:23.999Z,13.62
2018-10-21T23:11:54.009Z,16.57
2018-10-21T23:14:23.829Z,16.27
2018-10-21T23:16:53.870Z,13.80
2018-10-21T23:19:50.041Z,17.62
2018-10-21T23:22:20.055Z,16.05
2018-10-21T23:24:49.932Z,16.55
2018-10-21T23:27:20.048Z,20.05
2018-10-21T23:29:49.921Z,15.00
2018-10-21T23:32:19.813Z,11.33
2018-10-21T23:34:49.741Z,9.85
2018-10-21T23:37:19.609Z,11.22
2018-10-21T23:39:49.651Z,11.22
2018-10-21T23:42:19.635Z,9.53
2018-10-21T23:44:49.542Z,16.95
2018-10-21T23:47:19.461Z,11.20
2018-10-21T23:49:49.438Z,9.13
2018-10-21T23:52:19.382Z,9.15
2018-10-21T23:54:49.269Z,11.78
2018-10-21T23:57:19.202Z,12.30
2018-10-21T23:59:49.141Z,19.15
